Brasstown, NC

1:27 AM EDT on August 31, 2014 (GMT -0400)
Elevation 1780 | Change Station
CLOSE
Current Station
Personal Weather Station
Location: Brasstown, NC
Elevation: 1780 ft
Nearby Weather Stations

Elev 1780 ft 35.02 °N, 83.97 °W | Updated 14 minutes ago

Rain
Rain
69.4 °F
Feels Like 69.4 °F
N
0.0
Wind Variable Wind from NW
Gusts 2.0 mph

Today
High -- | Low -- °F
--% Chance of Precip.
Yesterday
High -- | Low -- °F
Precip. -- in
7:07 AM 8:03 PM
Waxing Crescent, 27% visible
Pressure 30.20 in
Visibility 7.0 miles
Clouds Scattered Clouds 300 ft
Mostly Cloudy 2000 ft
Overcast 5000 ft
Dew Point 69 °F
Humidity 98%
Rainfall 0.12 in
Snow Depth Not available.
UV 0.0 out of 12
Pollen 9.90 out of 12
Air Quality Not available.
Flu Activity Not available.
METAR KRHP 310515Z AUTO 00000KT 7SM SCT003 BKN020 OVC050 21/21 A3020 RMK AO2 T02110210

More Conditions Fewer Conditions

Pressure 30.20 in
Visibility 7.0 miles
Clouds Scattered Clouds 300 ft
Mostly Cloudy 2000 ft
Overcast 5000 ft
Dew Point 69 °F
Humidity 98%
Rainfall 0.12 in
Snow Depth Not available.
UV 0.0 out of 12
Pollen 9.90 out of 12
Air Quality Not available.
Flu Activity Not available.
METAR KRHP 310515Z AUTO 00000KT 7SM SCT003 BKN020 OVC050 21/21 A3020 RMK AO2 T02110210

More Conditions Fewer Conditions

10-Day Weather Forecast

Almanac

Astronomy

Aug. 31, 2014 Rise Set
Actual Time 7:07 AM EDT 8:03 PM EDT
Civil Twilight 6:41 AM EDT 8:29 PM EDT
Nautical Twilight 6:11 AM EDT 9:00 PM EDT
Astronomical Twilight 5:39 AM EDT 9:31 PM EDT
Moon 12:39 PM EDT 11:32 PM EDT
Length of Visible Light 13h 47m
Length of Day
12h 56m
Tomorrow will be 2m 6s shorter.
Waxing Crescent, 27% of the Moon is Illuminated
Today
Waxing Crescent
Sep 2
First Quarter
Sep 8
Full
Sep 15
Last Quarter
Sep 24
New

Today's Extremes

State Highs State Lows

Community

WunderPhotos

Upload Photos

1,748,790 photos uploaded!

Nearby

Snow Depth

Station Depth Elevation
No new snow has been reported.

Earthquake Activity

City Distance Mag. Time & Date
No recent earthquake activity has been reported nearby.
Minimum magnitude displayed is 2.5.

Coastal Water Temperatures

Place Temperature
No Stations Reporting

Nearby Weather Stations